Liscomb, Iowa
Current Conditions -  °F | °C
As of 6:53 PM on Monday 24 Nov 2014 (Local Time) from KMIW Reporting Station
Overcast Overcast  
Wind Chill:   Ceiling: 2700
Heat Index: 23°   Visibility: 10mi
Dew Point: 17°   Wind: 23mph
Humidity: 78%   Direction: 300°WNW
Pressure: 29.81"   Gusts: 32mph
Location:  42.19°N, 93°W
Report Text: KMIW 250053Z AUTO 30020G28KT 10SM BKN027 OVC032 M05/M08 A2981 RMK AO2 PK WND 30032/0028 SLP106 T10501083
Loading
Personal Weather Stations






























Interactive Weather Map New forecast layout! Learn more

10-Day Weather Forecast

Advertisements
Track Severe Weather on mobile